createdAt,value
2023-01-19T00:06:21.238Z,15.13
2023-01-19T00:08:50.336Z,14.75
2023-01-19T00:12:11.622Z,15.35
2023-01-19T00:14:39.294Z,14.85
2023-01-19T00:17:13.203Z,15.35
2023-01-19T00:19:40.902Z,15.23
2023-01-19T00:22:09.450Z,15.82
2023-01-19T00:24:54.458Z,14.48
2023-01-19T00:27:22.198Z,16.30
2023-01-19T00:29:49.663Z,15.57
2023-01-19T00:32:18.103Z,15.75
2023-01-19T00:34:50.637Z,15.45
2023-01-19T00:37:20.073Z,15.82
2023-01-19T00:39:48.003Z,16.40
2023-01-19T00:42:40.385Z,15.85
2023-01-19T00:45:15.894Z,15.30
2023-01-19T00:47:43.594Z,15.68
2023-01-19T00:50:11.912Z,16.08
2023-01-19T00:52:42.959Z,15.55
2023-01-19T00:55:11.624Z,16.45
2023-01-19T00:57:41.217Z,16.80
2023-01-19T01:03:37.678Z,16.45
2023-01-19T01:06:08.319Z,15.95
2023-01-19T01:08:36.001Z,15.85
2023-01-19T01:11:03.556Z,16.00
2023-01-19T01:13:33.714Z,16.42
2023-01-19T01:18:29.015Z,15.15
2023-01-19T01:21:04.567Z,16.23
2023-01-19T01:23:32.364Z,16.60
2023-01-19T01:25:59.925Z,16.13
2023-01-19T01:28:27.786Z,16.58
2023-01-19T01:30:56.278Z,18.40
2023-01-19T01:33:41.044Z,16.90
2023-01-19T01:36:12.064Z,17.55
2023-01-19T01:38:42.800Z,18.73
2023-01-19T01:41:10.816Z,17.95
2023-01-19T01:43:47.665Z,19.30
2023-01-19T01:46:16.372Z,18.75
2023-01-19T01:48:46.916Z,18.88
2023-01-19T01:54:34.416Z,18.33
2023-01-19T01:57:04.449Z,18.88
2023-01-19T01:59:39.375Z,18.83
2023-01-19T02:02:27.320Z,18.92
2023-01-19T02:04:56.615Z,19.05
2023-01-19T02:07:54.547Z,18.20
2023-01-19T02:10:47.464Z,18.77
2023-01-19T02:13:21.130Z,19.08
2023-01-19T02:15:53.365Z,19.60
2023-01-19T02:18:22.570Z,19.40
2023-01-19T02:21:09.029Z,18.57
2023-01-19T02:23:45.154Z,18.63
2023-01-19T02:26:16.209Z,18.58
2023-01-19T02:31:11.645Z,18.50
2023-01-19T02:33:39.105Z,17.13
2023-01-19T02:36:08.223Z,19.05
2023-01-19T02:38:39.106Z,18.88
2023-01-19T02:43:34.048Z,16.85
2023-01-19T02:46:01.898Z,19.65
2023-01-19T02:48:29.353Z,18.52
2023-01-19T02:51:00.996Z,19.35
2023-01-19T02:53:37.838Z,19.17
2023-01-19T02:56:17.534Z,18.15
2023-01-19T02:58:58.426Z,18.35
2023-01-19T03:01:35.989Z,18.40
2023-01-19T03:04:17.539Z,17.23
2023-01-19T03:06:50.902Z,19.02
2023-01-19T03:09:21.274Z,17.83
2023-01-19T03:14:20.208Z,16.77
2023-01-19T03:16:55.351Z,17.17
2023-01-19T03:19:23.147Z,17.83
2023-01-19T03:21:52.808Z,18.30
2023-01-19T03:24:22.841Z,17.27
2023-01-19T03:26:53.018Z,18.13
2023-01-19T03:29:23.493Z,16.92
2023-01-19T03:34:21.951Z,14.40
2023-01-19T03:36:54.350Z,16.92
2023-01-19T03:39:25.969Z,17.77
2023-01-19T03:41:55.931Z,16.13
2023-01-19T03:44:24.262Z,16.23
2023-01-19T03:46:53.096Z,16.60
2023-01-19T03:49:20.661Z,16.92
2023-01-19T03:51:48.476Z,16.08
2023-01-19T03:54:16.410Z,16.50
2023-01-19T03:56:45.420Z,17.05
2023-01-19T03:59:18.156Z,16.95
2023-01-19T04:01:48.476Z,16.15
2023-01-19T04:04:17.278Z,14.80
2023-01-19T04:06:50.488Z,15.10
2023-01-19T04:09:19.386Z,13.55
2023-01-19T04:11:48.135Z,13.68
2023-01-19T04:14:18.325Z,12.20
2023-01-19T04:16:55.367Z,12.77
2023-01-19T04:19:22.969Z,11.45
2023-01-19T04:21:51.021Z,11.75
2023-01-19T04:24:19.097Z,11.38
2023-01-19T04:26:47.315Z,12.20
2023-01-19T04:29:14.958Z,12.60
2023-01-19T04:31:42.403Z,12.35
2023-01-19T04:34:12.198Z,12.00
2023-01-19T04:36:39.974Z,11.88
2023-01-19T04:39:09.296Z,13.00
2023-01-19T04:41:36.948Z,12.65
2023-01-19T04:44:04.527Z,10.52
2023-01-19T04:46:32.383Z,10.57
2023-01-19T04:49:00.471Z,11.07
2023-01-19T04:51:29.072Z,10.98
2023-01-19T04:53:57.825Z,10.88
2023-01-19T04:56:26.047Z,8.95
2023-01-19T04:58:53.876Z,8.98
2023-01-19T05:01:21.722Z,9.82
2023-01-19T05:03:49.747Z,8.40
2023-01-19T05:06:20.453Z,7.65
2023-01-19T05:08:48.371Z,7.43
2023-01-19T05:11:17.619Z,7.50
2023-01-19T05:13:45.154Z,6.63
2023-01-19T05:16:14.213Z,6.15
2023-01-19T05:18:41.913Z,6.22
2023-01-19T05:21:09.315Z,6.55
2023-01-19T05:23:36.870Z,5.50
2023-01-19T05:26:04.685Z,5.35
2023-01-19T05:28:32.866Z,5.22
2023-01-19T05:31:00.468Z,4.65
2023-01-19T05:33:28.239Z,3.80
2023-01-19T05:35:56.024Z,3.90
2023-01-19T05:38:34.274Z,4.25
2023-01-19T05:41:03.123Z,4.28
2023-01-19T05:43:30.486Z,3.38
2023-01-19T05:45:58.238Z,3.17
2023-01-19T05:48:26.141Z,3.38
2023-01-19T05:50:57.889Z,3.20
2023-01-19T05:53:26.004Z,3.42
2023-01-19T05:55:53.574Z,3.00
2023-01-19T05:58:20.939Z,2.70
2023-01-19T06:00:48.579Z,2.38
2023-01-19T06:03:17.421Z,2.60
2023-01-19T06:05:44.900Z,2.42
2023-01-19T06:08:12.342Z,2.55
2023-01-19T06:10:41.197Z,3.00
2023-01-19T06:13:10.009Z,2.55
2023-01-19T06:15:37.659Z,3.05
2023-01-19T06:18:09.326Z,2.70
2023-01-19T06:20:37.959Z,2.90
2023-01-19T06:23:06.399Z,3.40
2023-01-19T06:25:34.021Z,3.80
2023-01-19T06:28:01.596Z,3.47
2023-01-19T06:30:30.605Z,3.85
2023-01-19T06:32:58.654Z,4.07
2023-01-19T06:35:27.121Z,4.00
2023-01-19T06:37:54.700Z,4.28
2023-01-19T06:40:22.679Z,4.25
2023-01-19T06:42:53.414Z,4.78
2023-01-19T06:45:20.974Z,6.22
2023-01-19T06:47:48.793Z,4.60
2023-01-19T06:50:17.911Z,5.75
2023-01-19T06:52:45.973Z,5.50
2023-01-19T06:55:14.802Z,5.68
2023-01-19T06:57:44.474Z,6.03
2023-01-19T07:00:12.678Z,6.68
2023-01-19T07:02:43.892Z,6.30
2023-01-19T07:05:14.535Z,6.18
2023-01-19T07:07:44.901Z,6.38
2023-01-19T07:10:16.042Z,6.40
2023-01-19T07:12:47.160Z,6.63
2023-01-19T07:15:16.143Z,6.72
2023-01-19T07:17:44.212Z,7.10
2023-01-19T07:20:16.002Z,7.15
2023-01-19T07:22:46.268Z,7.00
2023-01-19T07:25:14.561Z,6.80
2023-01-19T07:27:42.338Z,7.40
2023-01-19T07:30:10.608Z,8.63
2023-01-19T07:32:38.418Z,9.15
2023-01-19T07:35:06.136Z,8.93
2023-01-19T07:37:33.843Z,9.77
2023-01-19T07:40:01.348Z,10.60
2023-01-19T07:42:28.906Z,11.55
2023-01-19T07:44:57.016Z,11.88
2023-01-19T07:47:24.520Z,13.13
2023-01-19T07:49:52.887Z,13.82
2023-01-19T07:52:20.664Z,14.38
2023-01-19T07:54:50.949Z,15.65
2023-01-19T07:57:19.465Z,15.95
2023-01-19T07:59:47.229Z,16.17
2023-01-19T08:02:16.362Z,16.92
2023-01-19T08:04:48.854Z,17.17
2023-01-19T08:07:18.748Z,16.85
2023-01-19T08:09:47.358Z,18.38
2023-01-19T08:12:15.339Z,19.58
2023-01-19T08:14:43.541Z,18.70
2023-01-19T08:17:14.364Z,20.33
2023-01-19T08:19:43.184Z,22.25
2023-01-19T08:22:11.838Z,22.90
2023-01-19T08:24:39.373Z,22.63
2023-01-19T08:27:07.211Z,23.27
2023-01-19T08:29:35.132Z,22.98
2023-01-19T08:32:07.034Z,23.20
2023-01-19T08:34:35.167Z,23.40
2023-01-19T08:37:02.750Z,23.75
2023-01-19T08:39:30.218Z,22.90
2023-01-19T08:41:59.517Z,23.35
2023-01-19T08:44:27.558Z,23.40
2023-01-19T08:46:55.050Z,23.13
2023-01-19T08:49:27.110Z,23.35
2023-01-19T08:51:55.700Z,24.08
2023-01-19T08:54:24.307Z,24.70
2023-01-19T08:56:51.944Z,25.50
2023-01-19T08:59:19.330Z,23.98
2023-01-19T09:01:47.420Z,23.80
2023-01-19T09:04:17.564Z,23.80
2023-01-19T09:06:46.377Z,22.50
2023-01-19T09:09:14.583Z,20.63
2023-01-19T09:11:42.682Z,18.95
2023-01-19T09:14:10.350Z,19.05
2023-01-19T09:16:39.413Z,17.50
2023-01-19T09:19:08.742Z,18.17
2023-01-19T09:21:36.639Z,16.83
2023-01-19T09:24:04.189Z,15.13
2023-01-19T09:26:33.184Z,13.77
2023-01-19T09:29:00.958Z,12.02
2023-01-19T09:31:28.816Z,11.23
2023-01-19T09:33:56.284Z,9.43
2023-01-19T09:36:24.936Z,8.18
2023-01-19T09:38:52.425Z,9.25
2023-01-19T09:41:22.364Z,9.90
2023-01-19T09:43:53.724Z,10.13
2023-01-19T09:46:37.054Z,11.55
2023-01-19T09:49:07.071Z,13.20
2023-01-19T09:51:38.514Z,15.02
2023-01-19T09:54:16.187Z,15.23
2023-01-19T09:56:44.787Z,17.50
2023-01-19T09:59:15.013Z,19.88
2023-01-19T10:01:53.511Z,19.83
2023-01-19T10:04:24.466Z,19.98
2023-01-19T10:06:53.650Z,22.33
2023-01-19T10:09:32.375Z,23.25
2023-01-19T10:12:05.928Z,24.42
2023-01-19T10:14:37.381Z,25.67
2023-01-19T10:17:05.797Z,27.17
2023-01-19T10:19:45.687Z,27.95
2023-01-19T10:22:35.557Z,29.75
2023-01-19T10:25:08.898Z,31.30
2023-01-19T10:27:37.690Z,33.13
2023-01-19T10:30:08.259Z,32.88
2023-01-19T10:32:39.868Z,31.20
2023-01-19T10:35:27.381Z,29.52
2023-01-19T10:38:03.774Z,30.50
2023-01-19T10:40:40.865Z,31.50
2023-01-19T10:43:28.771Z,30.02
2023-01-19T10:45:56.486Z,29.00
2023-01-19T10:48:24.956Z,29.27
2023-01-19T10:51:02.797Z,27.00
2023-01-19T10:53:30.360Z,25.42
2023-01-19T10:56:15.076Z,27.10
2023-01-19T10:58:44.443Z,25.20
2023-01-19T11:01:15.827Z,25.00
2023-01-19T11:03:43.571Z,25.10
2023-01-19T11:06:16.953Z,25.08
2023-01-19T11:08:47.382Z,25.95
2023-01-19T11:11:15.134Z,24.55
2023-01-19T11:13:44.860Z,24.70
2023-01-19T11:16:42.898Z,24.75
2023-01-19T11:19:26.088Z,24.13
2023-01-19T11:21:53.866Z,22.83
2023-01-19T11:24:21.524Z,22.92
2023-01-19T11:26:51.820Z,21.58
2023-01-19T11:31:51.087Z,22.73
2023-01-19T11:34:28.510Z,21.70
2023-01-19T11:37:06.570Z,21.35
2023-01-19T11:39:53.683Z,22.30
2023-01-19T11:42:21.863Z,19.55
2023-01-19T11:44:59.199Z,18.58
2023-01-19T11:47:46.088Z,19.27
2023-01-19T11:50:17.347Z,19.15
2023-01-19T11:52:48.059Z,18.95
2023-01-19T11:55:34.840Z,16.15
2023-01-19T11:58:03.784Z,15.35
2023-01-19T12:01:00.074Z,15.20
2023-01-19T12:03:30.892Z,14.05
2023-01-19T12:06:24.471Z,13.10
2023-01-19T12:09:30.245Z,11.13
2023-01-19T12:12:04.868Z,10.85
2023-01-19T12:14:48.589Z,11.48
2023-01-19T12:17:32.844Z,10.50
2023-01-19T12:20:20.066Z,10.60
2023-01-19T12:23:00.712Z,10.57
2023-01-19T12:29:04.715Z,9.73
2023-01-19T12:32:07.588Z,9.85
2023-01-19T12:35:09.215Z,9.18
2023-01-19T12:37:40.225Z,11.15
2023-01-19T12:40:23.347Z,8.80
2023-01-19T12:42:57.920Z,8.88
2023-01-19T12:45:26.282Z,8.80
2023-01-19T12:47:57.719Z,9.07
2023-01-19T12:50:29.845Z,8.63
2023-01-19T12:53:02.912Z,9.02
2023-01-19T12:55:55.683Z,8.23
2023-01-19T12:58:24.333Z,8.30
2023-01-19T13:04:28.448Z,8.73
2023-01-19T13:06:56.028Z,8.15
2023-01-19T13:09:29.789Z,8.40
2023-01-19T13:12:16.889Z,8.32
2023-01-19T13:14:46.223Z,8.23
2023-01-19T13:17:25.959Z,8.88
2023-01-19T13:20:14.821Z,8.70
2023-01-19T13:22:50.069Z,7.18
2023-01-19T13:25:35.649Z,7.88
2023-01-19T13:28:18.813Z,7.97
2023-01-19T13:31:39.995Z,7.63
2023-01-19T13:35:07.539Z,8.13
2023-01-19T13:38:00.556Z,8.25
2023-01-19T13:40:38.741Z,7.95
2023-01-19T13:43:12.220Z,7.60
2023-01-19T13:46:12.062Z,7.30
2023-01-19T13:48:59.445Z,7.20
2023-01-19T13:51:27.148Z,8.43
2023-01-19T13:54:30.597Z,6.68
2023-01-19T13:57:38.648Z,8.27
2023-01-19T14:01:00.010Z,7.60
2023-01-19T14:04:01.370Z,8.45
2023-01-19T14:06:39.591Z,8.27
2023-01-19T14:09:17.123Z,8.52
2023-01-19T14:12:05.248Z,8.95
2023-01-19T14:14:34.117Z,8.73
2023-01-19T14:17:19.545Z,8.15
2023-01-19T14:20:05.536Z,7.22
2023-01-19T14:22:40.723Z,7.38
2023-01-19T14:25:27.534Z,7.78
2023-01-19T14:28:13.810Z,8.88
2023-01-19T14:31:01.307Z,9.05
2023-01-19T14:33:53.472Z,8.88
2023-01-19T14:36:30.303Z,8.65
2023-01-19T14:39:03.340Z,8.93
2023-01-19T14:45:49.623Z,10.93
2023-01-19T14:48:22.317Z,10.93
2023-01-19T14:51:02.860Z,11.40
2023-01-19T14:53:34.842Z,11.55
2023-01-19T14:56:04.829Z,12.07
2023-01-19T14:58:33.998Z,12.57
2023-01-19T15:03:49.302Z,12.75
2023-01-19T15:06:35.540Z,13.55
2023-01-19T15:09:11.785Z,14.15
2023-01-19T15:11:48.103Z,14.25
2023-01-19T15:14:17.662Z,14.57
2023-01-19T15:16:48.760Z,14.90
2023-01-19T15:19:18.944Z,15.82
2023-01-19T15:21:47.243Z,16.52
2023-01-19T15:24:17.584Z,18.08
2023-01-19T15:26:46.042Z,18.35
2023-01-19T15:29:23.443Z,18.92
2023-01-19T15:31:51.698Z,19.90
2023-01-19T15:34:22.484Z,19.67
2023-01-19T15:36:50.170Z,20.10
2023-01-19T15:39:20.854Z,19.17
2023-01-19T15:41:49.057Z,20.13
2023-01-19T15:44:17.523Z,21.15
2023-01-19T15:46:46.155Z,21.50
2023-01-19T15:49:13.632Z,22.50
2023-01-19T15:51:41.131Z,23.75
2023-01-19T15:54:11.890Z,23.23
2023-01-19T15:56:43.413Z,21.38
2023-01-19T15:59:11.626Z,21.58
2023-01-19T16:01:41.486Z,22.63
2023-01-19T16:04:11.183Z,23.40
2023-01-19T16:06:38.996Z,24.10
2023-01-19T16:09:06.929Z,23.48
2023-01-19T16:11:35.378Z,24.00
2023-01-19T16:14:02.959Z,23.38
2023-01-19T16:16:31.059Z,22.60
2023-01-19T16:18:59.623Z,21.42
2023-01-19T16:21:28.128Z,22.02
2023-01-19T16:23:55.973Z,23.13
2023-01-19T16:26:32.335Z,21.17
2023-01-19T16:29:01.306Z,21.52
2023-01-19T16:31:33.645Z,20.95
2023-01-19T16:34:02.014Z,22.67
2023-01-19T16:36:30.576Z,22.08
2023-01-19T16:39:06.656Z,22.88
2023-01-19T16:41:35.334Z,23.17
2023-01-19T16:44:02.765Z,23.10
2023-01-19T16:46:32.852Z,25.60
2023-01-19T16:49:01.636Z,24.38
2023-01-19T16:51:29.864Z,24.83
2023-01-19T16:53:57.684Z,26.42
2023-01-19T16:56:28.005Z,25.63
2023-01-19T17:01:23.653Z,24.50
2023-01-19T17:03:51.296Z,25.52
2023-01-19T17:06:20.196Z,27.00
2023-01-19T17:08:48.158Z,27.23
2023-01-19T17:11:20.986Z,25.48
2023-01-19T17:13:49.012Z,25.70
2023-01-19T17:16:17.280Z,26.25
2023-01-19T17:18:46.299Z,27.40
2023-01-19T17:21:18.047Z,25.75
2023-01-19T17:23:50.557Z,25.50
2023-01-19T17:26:18.858Z,25.25
2023-01-19T17:28:47.127Z,23.88
2023-01-19T17:31:22.606Z,26.45
2023-01-19T17:33:51.335Z,24.27
2023-01-19T17:36:22.484Z,26.27
2023-01-19T17:38:50.935Z,24.55
2023-01-19T17:41:21.268Z,24.10
2023-01-19T17:43:50.454Z,24.95
2023-01-19T17:46:22.453Z,24.98
2023-01-19T17:48:54.089Z,23.95
2023-01-19T17:51:23.210Z,24.48
2023-01-19T17:53:51.596Z,24.65
2023-01-19T17:56:26.062Z,24.52
2023-01-19T17:58:54.021Z,23.63
2023-01-19T18:01:23.052Z,24.48
2023-01-19T18:03:51.107Z,23.90
2023-01-19T18:06:20.185Z,23.88
2023-01-19T18:08:48.592Z,25.92
2023-01-19T18:11:18.847Z,23.20
2023-01-19T18:13:48.957Z,24.95
2023-01-19T18:16:18.403Z,22.70
2023-01-19T18:18:46.181Z,23.05
2023-01-19T18:21:14.843Z,24.23
2023-01-19T18:23:45.359Z,23.95
2023-01-19T18:26:14.924Z,23.75
2023-01-19T18:28:43.277Z,23.85
2023-01-19T18:31:12.307Z,23.35
2023-01-19T18:33:40.736Z,22.30
2023-01-19T18:36:09.037Z,22.00
2023-01-19T18:38:36.979Z,23.17
2023-01-19T18:41:09.903Z,25.58
2023-01-19T18:43:37.388Z,22.92
2023-01-19T18:46:04.976Z,22.70
2023-01-19T18:48:32.688Z,23.92
2023-01-19T18:51:03.549Z,22.52
2023-01-19T18:53:32.338Z,23.15
2023-01-19T18:56:02.252Z,22.77
2023-01-19T18:58:31.747Z,24.50
2023-01-19T19:01:00.268Z,25.27
2023-01-19T19:03:30.202Z,25.52
2023-01-19T19:05:57.798Z,25.65
2023-01-19T19:08:25.376Z,25.88
2023-01-19T19:10:53.221Z,25.48
2023-01-19T19:13:21.944Z,26.08
2023-01-19T19:15:50.458Z,25.77
2023-01-19T19:18:18.389Z,27.50
2023-01-19T19:20:46.226Z,25.98
2023-01-19T19:23:13.908Z,27.08
2023-01-19T19:25:41.677Z,27.30
2023-01-19T19:28:09.219Z,29.35
2023-01-19T19:30:39.027Z,28.88
2023-01-19T19:33:07.806Z,27.15
2023-01-19T19:35:35.354Z,28.40
2023-01-19T19:38:03.156Z,27.45
2023-01-19T19:40:30.901Z,28.63
2023-01-19T19:42:59.656Z,28.73
2023-01-19T19:45:34.619Z,29.90
2023-01-19T19:48:02.619Z,30.95
2023-01-19T19:50:30.067Z,28.38
2023-01-19T19:52:58.949Z,29.90
2023-01-19T19:55:38.135Z,30.85
2023-01-19T19:58:05.807Z,29.67
2023-01-19T20:00:38.913Z,30.13
2023-01-19T20:03:13.640Z,30.52
2023-01-19T20:05:41.129Z,30.60
2023-01-19T20:08:17.329Z,30.85
2023-01-19T20:10:46.173Z,32.25
2023-01-19T20:13:15.904Z,29.70
2023-01-19T20:15:50.539Z,31.73
2023-01-19T20:18:18.242Z,30.25
2023-01-19T20:21:02.739Z,32.15
2023-01-19T20:23:30.230Z,31.30
2023-01-19T20:25:57.615Z,30.60
2023-01-19T20:28:25.756Z,30.88
2023-01-19T20:30:54.877Z,32.05
2023-01-19T20:33:22.454Z,31.88
2023-01-19T20:35:52.323Z,33.80
2023-01-19T20:38:19.905Z,29.13
2023-01-19T20:40:50.106Z,31.42
2023-01-19T20:43:18.106Z,30.05
2023-01-19T20:45:46.085Z,30.90
2023-01-19T20:48:13.891Z,31.25
2023-01-19T20:50:41.840Z,32.33
2023-01-19T20:53:09.234Z,30.88
2023-01-19T20:55:38.205Z,32.95
2023-01-19T20:58:05.821Z,33.10
2023-01-19T21:00:40.311Z,34.40
2023-01-19T21:03:08.023Z,34.70
2023-01-19T21:05:35.556Z,35.35
2023-01-19T21:08:03.163Z,35.88
2023-01-19T21:10:37.807Z,38.22
2023-01-19T21:13:08.392Z,36.47
2023-01-19T21:15:35.938Z,39.35
2023-01-19T21:18:03.594Z,38.45
2023-01-19T21:20:31.349Z,37.75
2023-01-19T21:23:00.140Z,39.35
2023-01-19T21:25:27.627Z,38.70
2023-01-19T21:27:55.176Z,40.78
2023-01-19T21:30:22.796Z,40.45
2023-01-19T21:32:50.524Z,38.45
2023-01-19T21:35:18.015Z,40.63
2023-01-19T21:37:46.073Z,40.25
2023-01-19T21:40:13.999Z,41.50
2023-01-19T21:42:41.876Z,40.55
2023-01-19T21:45:09.424Z,41.70
2023-01-19T21:47:37.154Z,40.72
2023-01-19T21:50:04.886Z,41.65
2023-01-19T21:52:32.404Z,42.30
2023-01-19T21:54:59.960Z,42.88
2023-01-19T21:57:27.446Z,43.20
2023-01-19T21:59:55.069Z,42.00
2023-01-19T22:02:37.670Z,42.30
2023-01-19T22:05:06.925Z,41.30
2023-01-19T22:07:34.553Z,42.13
2023-01-19T22:10:02.087Z,40.28
2023-01-19T22:12:30.101Z,42.05
2023-01-19T22:14:57.578Z,41.20
2023-01-19T22:17:25.069Z,40.78
2023-01-19T22:19:52.758Z,39.38
2023-01-19T22:22:20.480Z,41.63
2023-01-19T22:24:50.605Z,39.88
2023-01-19T22:27:18.362Z,40.35
2023-01-19T22:29:45.892Z,40.17
2023-01-19T22:32:13.370Z,39.75
2023-01-19T22:34:40.886Z,39.17
2023-01-19T22:37:08.405Z,40.58
2023-01-19T22:39:35.988Z,40.08
2023-01-19T22:42:03.446Z,39.50
2023-01-19T22:44:31.085Z,39.13
2023-01-19T22:46:58.738Z,37.90
2023-01-19T22:49:33.000Z,38.97
2023-01-19T22:52:00.725Z,38.08
2023-01-19T22:54:30.100Z,39.42
2023-01-19T22:56:58.065Z,35.95
2023-01-19T22:59:25.673Z,36.83
2023-01-19T23:01:53.549Z,36.55
2023-01-19T23:04:21.132Z,35.33
2023-01-19T23:06:50.609Z,35.33
2023-01-19T23:09:18.439Z,36.97
2023-01-19T23:11:51.400Z,36.13
2023-01-19T23:14:20.529Z,36.55
2023-01-19T23:16:48.081Z,35.92
2023-01-19T23:19:17.426Z,35.42
2023-01-19T23:21:45.003Z,35.42
2023-01-19T23:24:13.266Z,35.05
2023-01-19T23:26:40.889Z,35.25
2023-01-19T23:29:10.591Z,36.50
2023-01-19T23:31:39.326Z,35.28
2023-01-19T23:34:09.566Z,34.75
2023-01-19T23:39:15.841Z,36.15
2023-01-19T23:41:43.451Z,36.13
2023-01-19T23:44:10.960Z,36.53
2023-01-19T23:46:39.390Z,37.72
2023-01-19T23:49:06.875Z,37.78
2023-01-19T23:51:34.786Z,37.03
2023-01-19T23:54:02.649Z,38.17
2023-01-19T23:56:32.210Z,37.08
2023-01-19T23:59:00.961Z,40.07
